^^

Nearby METAR Reports

METAR (Meteorological Aerodrome Report) are Airport generated local weather condition reports for use, predominantly by pilots, these reports are also used as part of compliment of data sets required for Chatteris Weathers prediction software - WxSim.

EGUN - Mildenhall Raf, United Kingdom
Distance from station: ESE 19mi, 31km
Updated: 16/08/2018 12:16
Light rain, Mostly cloudy
Light rain, Mostly cloudy
 Wind from SSW
Wind: SSW 7 mph , 11 km/h
Temperature: 16°C
Dew Point: 16°C
Humidity: 100%
Barometer: 1011.2 hPa
Summary: Light rain
Clouds: Mostly cloudy
Visibility: 6 miles , 10 km
Cloud details: Mostly cloudy 1311 m
2018/08/16 11:16 EGUN 161116Z AUTO 20006KT 9999 -RA BKN043 16/16 A2986 RMK AO2 SLP115 $
EGSC - Cambridge, United Kingdom
Distance from station: SSE 20mi, 32km
Updated: 16/08/2018 12:20
Light rain, Few clouds
Light rain, Few clouds
 Wind from S
Wind: S 8 mph , 13 km/h
Temperature: 16°C
Dew Point: 15°C
Humidity: 94%
Barometer: 1012 hPa
Summary: Light rain
Clouds: Few Clouds
Visibility: 5 miles , 8 km
Cloud details: Few Clouds 457 m
2018/08/16 11:20 EGSC 161120Z 19007KT 8000 -RA FEW015 16/15 Q1012
 
EGUL - Lakenheath Raf, United Kingdom
Distance from station: E 22mi, 36km
Updated: 16/08/2018 12:12
Light rain, Overcast
Light rain, Overcast
 Wind from SSW
Wind: SSW 7 mph , 11 km/h
Temperature: 16°C
Dew Point: 14°C
Humidity: 88%
Barometer: 1011.2 hPa
Summary: Light rain
Clouds: Overcast
Visibility: 6 miles , 10 km
Cloud details: Overcast 610 m
2018/08/16 11:12 EGUL 161112Z 20006KT 9999 -RA OVC020 16/14 A2986 RMK AO2A SLP115 $
EGXT - Wittering Raf, United Kingdom
Distance from station: WNW 24mi, 38km
Updated: 16/08/2018 11:50
Mostly cloudy
Mostly cloudy
 Wind from SW
Wind: SW 10 mph , 17 km/h
Temperature: 17°C
Dew Point: 15°C
Humidity: 88%
Barometer: 1010 hPa
Clouds: Mostly cloudy
Visibility: 6 miles , 10 km
Cloud details: Few Clouds 244 m
Partly cloudy 427 m
Mostly cloudy 1036 m
2018/08/16 10:50 EGXT 161050Z 22009KT 9999 FEW008 SCT014 BKN034 17/15 Q1010 GRN
 
EGYH - Holbeach (aut), United Kingdom
Distance from station: N 27mi, 44km
Updated: 16/08/2018 11:50
Light rain, Mostly cloudy
Light rain, Mostly cloudy
 Wind from SW
Wind: SW 16 mph , 26 km/h
Temperature: 17°C
Dew Point: 15°C
Humidity: 88%
Barometer: 1011 hPa
Summary: Light rain
Clouds: Mostly cloudy
Visibility: 6 miles , 10 km
Cloud details: Partly cloudy 457 m
Mostly cloudy 1219 m
2018/08/16 10:50 EGYH 161050Z 23014KT 9999 -RA SCT015 BKN040 17/15 Q1011 WHT
EGSS - Stansted Airport, United Kingdom
Distance from station: SE 11mi, 18km
Updated: 16/08/2018 12:20
Light rain, Partly cloudy
Light rain, Partly cloudy
 Wind from SW
Wind: SW 9 mph , 15 km/h
Temperature: 16°C
Dew Point: 15°C
Humidity: 94%
Barometer: 1012 hPa
Summary: Light rain
Clouds: Partly cloudy
Visibility: 6 miles , 9 km
Cloud details: Few Clouds 213 m
Partly cloudy 457 m
2018/08/16 11:20 EGSS 161120Z 22008KT 9000 -RA FEW007 SCT015 16/15 Q1012
 
EGGW - Luton Airport, United Kingdom
Distance from station: WSW 19mi, 31km
Updated: 16/08/2018 12:20
Light rain, Thunderstorm
Light rain, Thunderstorm
 Wind from WSW
Wind: WSW 12 mph , 19 km/h
Temperature: 14°C
Dew Point: 12°C
Humidity: 88%
Barometer: 1012 hPa
Summary: Light rain
Clouds: Thunderstorm
Visibility: 6 miles , 10 km
Cloud details: Mostly cloudy 1067 m
Mostly cloudy 1280 m
2018/08/16 11:20 EGGW 161120Z AUTO 24010KT 9999 -RA BKN035/// BKN042/// //////TCU 14/12 Q1012
EGLL - London/Heathrow, United Kingdom
Distance from station: SSW 41mi, 66km
Updated: 16/08/2018 12:20
Light rain, Thunderstorm
Light rain, Thunderstorm
 Wind from W
Wind: W 15 mph , 24 km/h
Temperature: 15°C
Dew Point: 14°C
Humidity: 94%
Barometer: 1014 hPa
Summary: Light rain
Clouds: Thunderstorm
Visibility: 6 miles , 10 km
Cloud details: Few Clouds 305 m
Partly cloudy 518 m
Mostly cloudy 762 m
2018/08/16 11:20 EGLL 161120Z AUTO 27013KT 9999 -RA FEW010/// SCT017/// BKN025/// //////CB 15/14 Q1014
 
EGKK - London/Gatwick A, United Kingdom
Distance from station: S 60mi, 97km
Updated: 16/08/2018 12:20
Rain, Mostly cloudy
Rain, Mostly cloudy
 Wind from WSW
Wind: WSW 8 mph , 13 km/h
Temperature: 16°C
Dew Point: 16°C
Humidity: 100%
Barometer: 1014 hPa
Summary: Rain
Clouds: Mostly cloudy
Visibility: 5 miles , 8 km
Cloud details: Few Clouds 244 m
Partly cloudy 762 m
Mostly cloudy 1189 m
2018/08/16 11:20 EGKK 161120Z 24007KT 8000 RA FEW008 SCT025 BKN039 16/16 Q1014 REDZ
EGUY - Wyton Raf, United Kingdom
Distance from station: SW 11mi, 18km
Updated: 04/10/2015 09:50
NOT Current
Haze, Clear
Haze, Clear
 Wind from SSE
Wind: SSE 2 mph , 4 km/h
Temperature: 11°C
Dew Point: 7°C
Humidity: 77%
Barometer: 1014 hPa
Summary: Haze
Clouds: Clear
Visibility: 4 miles , 6 km
2015/10/04 08:50 EGUY 040850Z 15002KT 6000 HZ SKC 11/07 Q1014 WHT

Met Office METAR data link, decoding METAR data code.